createdAt,value
2023-02-17T00:00:35.890Z,99386.00
2023-02-17T00:02:38.439Z,99391.44
2023-02-17T00:04:41.308Z,99385.53
2023-02-17T00:06:42.899Z,99383.88
2023-02-17T00:08:45.088Z,99386.34
2023-02-17T00:10:55.388Z,99387.44
2023-02-17T00:12:56.989Z,99380.91
2023-02-17T00:14:58.520Z,99380.69
2023-02-17T00:16:59.955Z,99375.84
2023-02-17T00:19:02.225Z,99376.91
2023-02-17T00:21:19.436Z,99369.81
2023-02-17T00:23:21.261Z,99374.19
2023-02-17T00:25:22.764Z,99377.53
2023-02-17T00:27:24.235Z,99366.66
2023-02-17T00:29:27.146Z,99373.72
2023-02-17T00:31:28.992Z,99370.16
2023-02-17T00:33:34.315Z,99368.28
2023-02-17T00:35:39.358Z,99375.84
2023-02-17T00:37:41.019Z,99372.09
2023-02-17T00:39:43.000Z,99376.25
2023-02-17T00:41:45.523Z,99372.44
2023-02-17T00:43:47.925Z,99384.19
2023-02-17T00:45:50.073Z,99380.78
2023-02-17T00:47:51.646Z,99373.69
2023-02-17T00:49:53.610Z,99372.38
2023-02-17T00:51:55.147Z,99363.75
2023-02-17T00:53:56.933Z,99361.84
2023-02-17T00:55:58.381Z,99358.94
2023-02-17T00:58:03.148Z,99368.53
2023-02-17T01:00:06.017Z,99367.69
2023-02-17T01:02:08.599Z,99369.13
2023-02-17T01:04:11.196Z,99371.63
2023-02-17T01:06:21.723Z,99369.97
2023-02-17T01:08:23.812Z,99366.75
2023-02-17T01:10:26.065Z,99372.84
2023-02-17T01:12:27.785Z,99369.03
2023-02-17T01:14:29.512Z,99368.38
2023-02-17T01:16:37.959Z,99366.50
2023-02-17T01:18:39.520Z,99359.16
2023-02-17T01:20:41.263Z,99356.56
2023-02-17T01:22:42.938Z,99358.47
2023-02-17T01:24:44.639Z,99350.28
2023-02-17T01:26:46.297Z,99351.97
2023-02-17T01:28:48.442Z,99345.22
2023-02-17T01:30:50.023Z,99338.94
2023-02-17T01:32:51.606Z,99341.91
2023-02-17T01:34:53.213Z,99326.59
2023-02-17T01:36:54.812Z,99331.38
2023-02-17T01:38:56.708Z,99327.59
2023-02-17T01:40:58.905Z,99338.84
2023-02-17T01:43:00.483Z,99324.16
2023-02-17T01:45:17.368Z,99325.22
2023-02-17T01:47:21.883Z,99322.88
2023-02-17T01:49:29.936Z,99327.72
2023-02-17T01:51:36.694Z,99332.13
2023-02-17T01:53:48.651Z,99325.38
2023-02-17T01:55:54.480Z,99324.91
2023-02-17T01:58:00.790Z,99320.66
2023-02-17T02:00:03.769Z,99318.16
2023-02-17T02:02:14.820Z,99311.91
2023-02-17T02:04:21.370Z,99296.84
2023-02-17T02:06:26.171Z,99298.50
2023-02-17T02:08:32.820Z,99292.00
2023-02-17T02:10:34.383Z,99287.59
2023-02-17T02:12:40.984Z,99294.47
2023-02-17T02:14:42.716Z,99287.13
2023-02-17T02:16:49.677Z,99287.13
2023-02-17T02:19:04.714Z,99287.59
2023-02-17T02:21:27.715Z,99283.56
2023-02-17T02:23:58.508Z,99282.72
2023-02-17T02:26:02.878Z,99286.88
2023-02-17T02:28:35.049Z,99280.84
2023-02-17T02:30:50.764Z,99284.78
2023-02-17T02:33:04.818Z,99281.81
2023-02-17T02:35:27.969Z,99282.41
2023-02-17T02:37:39.371Z,99279.47
2023-02-17T02:39:47.004Z,99276.03
2023-02-17T02:41:55.450Z,99267.59
2023-02-17T02:43:57.056Z,99268.19
2023-02-17T02:45:58.788Z,99268.00
2023-02-17T02:48:00.670Z,99265.84
2023-02-17T02:50:09.198Z,99270.00
2023-02-17T02:52:27.420Z,99267.28
2023-02-17T02:54:49.524Z,99269.75
2023-02-17T02:57:07.921Z,99263.84
2023-02-17T02:59:25.970Z,99267.16
2023-02-17T03:01:56.383Z,99269.41
2023-02-17T03:04:10.605Z,99267.28
2023-02-17T03:06:22.184Z,99262.44
2023-02-17T03:08:47.512Z,99265.53
2023-02-17T03:10:52.846Z,99259.22
2023-02-17T03:12:55.414Z,99257.94
2023-02-17T03:15:18.906Z,99256.88
2023-02-17T03:17:20.486Z,99257.47
2023-02-17T03:19:25.861Z,99252.59
2023-02-17T03:21:41.923Z,99256.75
2023-02-17T03:23:46.902Z,99254.41
2023-02-17T03:25:48.735Z,99260.69
2023-02-17T03:27:50.388Z,99261.28
2023-02-17T03:29:52.045Z,99261.88
2023-02-17T03:31:54.930Z,99262.69
2023-02-17T03:33:56.729Z,99264.38
2023-02-17T03:35:58.381Z,99264.97
2023-02-17T03:37:59.845Z,99270.16
2023-02-17T03:40:03.882Z,99268.03
2023-02-17T03:42:07.852Z,99265.31
2023-02-17T03:44:09.379Z,99267.22
2023-02-17T03:46:12.780Z,99265.91
2023-02-17T03:48:14.460Z,99258.31
2023-02-17T03:50:16.264Z,99256.19
2023-02-17T03:52:18.507Z,99255.13
2023-02-17T03:54:19.965Z,99252.41
2023-02-17T03:56:22.649Z,99251.31
2023-02-17T03:58:24.220Z,99252.97
2023-02-17T04:00:25.963Z,99244.53
2023-02-17T04:02:27.572Z,99245.38
2023-02-17T04:04:29.096Z,99243.50
2023-02-17T04:06:30.677Z,99237.78
2023-02-17T04:08:32.709Z,99236.72
2023-02-17T04:10:34.235Z,99242.19
2023-02-17T04:12:35.931Z,99236.47
2023-02-17T04:14:37.460Z,99231.84
2023-02-17T04:16:39.393Z,99237.06
2023-02-17T04:18:41.026Z,99236.00
2023-02-17T04:20:48.809Z,99234.94
2023-02-17T04:22:50.460Z,99232.56
2023-02-17T04:24:52.048Z,99230.66
2023-02-17T04:26:53.840Z,99227.69
2023-02-17T04:28:56.694Z,99237.78
2023-02-17T04:31:00.006Z,99226.63
2023-02-17T04:33:01.795Z,99226.38
2023-02-17T04:35:03.377Z,99222.59
2023-02-17T04:37:04.937Z,99222.34
2023-02-17T04:39:06.671Z,99214.16
2023-02-17T04:41:08.283Z,99214.16
2023-02-17T04:43:12.826Z,99216.06
2023-02-17T04:45:14.822Z,99222.94
2023-02-17T04:47:16.336Z,99221.03
2023-02-17T04:49:17.931Z,99216.97
2023-02-17T04:51:19.498Z,99208.56
2023-02-17T04:53:21.137Z,99210.22
2023-02-17T04:55:22.701Z,99211.03
2023-02-17T04:57:24.449Z,99205.59
2023-02-17T04:59:25.997Z,99203.44
2023-02-17T05:01:30.160Z,99204.06
2023-02-17T05:03:31.790Z,99204.06
2023-02-17T05:05:33.517Z,99208.41
2023-02-17T05:07:36.078Z,99204.38
2023-02-17T05:09:37.946Z,99207.94
2023-02-17T05:11:39.585Z,99202.00
2023-02-17T05:13:41.237Z,99208.31
2023-02-17T05:15:46.371Z,99215.19
2023-02-17T05:17:49.406Z,99207.81
2023-02-17T05:19:50.873Z,99208.16
2023-02-17T05:21:58.750Z,99213.97
2023-02-17T05:24:02.443Z,99202.22
2023-02-17T05:26:04.564Z,99206.38
2023-02-17T05:28:09.093Z,99197.72
2023-02-17T05:30:11.181Z,99200.22
2023-02-17T05:32:12.922Z,99202.94
2023-02-17T05:34:14.593Z,99207.91
2023-02-17T05:36:16.297Z,99206.59
2023-02-17T05:38:17.908Z,99206.13
2023-02-17T05:40:21.568Z,99203.97
2023-02-17T05:42:23.285Z,99204.81
2023-02-17T05:44:24.854Z,99202.66
2023-02-17T05:46:26.694Z,99208.69
2023-02-17T05:48:28.269Z,99216.41
2023-02-17T05:50:30.046Z,99217.25
2023-02-17T05:52:43.299Z,99217.25
2023-02-17T05:54:44.915Z,99210.22
2023-02-17T05:56:46.832Z,99213.53
2023-02-17T05:58:48.586Z,99214.13
2023-02-17T06:00:50.729Z,99212.22
2023-02-17T06:02:52.636Z,99212.81
2023-02-17T06:04:54.405Z,99209.00
2023-02-17T06:06:56.070Z,99213.13
2023-02-17T06:08:57.671Z,99209.09
2023-02-17T06:10:59.339Z,99208.03
2023-02-17T06:13:00.896Z,99206.94
2023-02-17T06:15:02.849Z,99209.66
2023-02-17T06:17:04.506Z,99202.09
2023-02-17T06:19:06.388Z,99204.28
2023-02-17T06:21:08.277Z,99209.75
2023-02-17T06:23:11.430Z,99202.19
2023-02-17T06:25:13.161Z,99195.63
2023-02-17T06:27:14.803Z,99191.81
2023-02-17T06:29:16.419Z,99196.81
2023-02-17T06:31:18.063Z,99197.03
2023-02-17T06:33:19.871Z,99196.81
2023-02-17T06:35:21.835Z,99202.25
2023-02-17T06:37:23.523Z,99205.56
2023-02-17T06:39:24.936Z,99211.88
2023-02-17T06:41:26.553Z,99207.00
2023-02-17T06:43:28.150Z,99212.44
2023-02-17T06:45:29.829Z,99215.75
2023-02-17T06:47:35.616Z,99218.50
2023-02-17T06:49:38.699Z,99215.50
2023-02-17T06:51:41.576Z,99218.84
2023-02-17T06:53:43.178Z,99205.75
2023-02-17T06:55:46.873Z,99199.44
2023-02-17T06:57:48.794Z,99200.03
2023-02-17T06:59:50.513Z,99205.00
2023-02-17T07:02:02.505Z,99206.69
2023-02-17T07:04:04.845Z,99207.75
2023-02-17T07:06:06.533Z,99203.94
2023-02-17T07:08:08.378Z,99203.94
2023-02-17T07:10:10.514Z,99205.34
2023-02-17T07:12:16.344Z,99200.47
2023-02-17T07:14:17.848Z,99214.97
2023-02-17T07:16:19.437Z,99206.25
2023-02-17T07:18:21.070Z,99209.81
2023-02-17T07:20:22.807Z,99203.28
2023-02-17T07:22:26.333Z,99207.44
2023-02-17T07:24:27.990Z,99215.38
2023-02-17T07:26:29.558Z,99219.78
2023-02-17T07:28:31.439Z,99220.84
2023-02-17T07:30:36.786Z,99225.81
2023-02-17T07:32:38.407Z,99213.00
2023-02-17T07:34:39.864Z,99213.81
2023-02-17T07:36:41.784Z,99223.66
2023-02-17T07:38:43.481Z,99224.50
2023-02-17T07:40:45.081Z,99228.06
2023-02-17T07:42:46.996Z,99229.72
2023-02-17T07:44:48.559Z,99233.06
2023-02-17T07:46:53.099Z,99236.59
2023-02-17T07:48:59.287Z,99234.69
2023-02-17T07:51:11.818Z,99242.06
2023-02-17T07:53:13.344Z,99244.56
2023-02-17T07:55:15.609Z,99250.03
2023-02-17T07:57:17.680Z,99252.78
2023-02-17T07:59:19.180Z,99250.88
2023-02-17T08:01:25.428Z,99244.56
2023-02-17T08:03:27.108Z,99242.41
2023-02-17T08:05:28.698Z,99254.19
2023-02-17T08:07:31.923Z,99256.66
2023-02-17T08:09:52.231Z,99253.69
2023-02-17T08:12:12.413Z,99259.16
2023-02-17T08:14:14.532Z,99263.81
2023-02-17T08:16:16.204Z,99271.75
2023-02-17T08:18:17.904Z,99265.44
2023-02-17T08:20:19.475Z,99252.03
2023-02-17T08:22:21.124Z,99261.66
2023-02-17T08:24:22.888Z,99260.59
2023-02-17T08:26:24.891Z,99267.69
2023-02-17T08:28:26.568Z,99266.63
2023-02-17T08:30:28.266Z,99267.47
2023-02-17T08:32:30.053Z,99266.63
2023-02-17T08:34:34.655Z,99261.16
2023-02-17T08:36:37.536Z,99262.78
2023-02-17T08:38:39.945Z,99268.25
2023-02-17T08:40:41.414Z,99273.75
2023-02-17T08:42:43.126Z,99268.88
2023-02-17T08:44:46.160Z,99279.56
2023-02-17T08:46:48.795Z,99271.34
2023-02-17T08:48:50.455Z,99271.09
2023-02-17T08:50:51.980Z,99274.66
2023-02-17T08:52:53.537Z,99271.69
2023-02-17T08:54:55.114Z,99265.13
2023-02-17T08:56:56.866Z,99261.31
2023-02-17T08:58:58.635Z,99264.63
2023-02-17T09:01:00.369Z,99260.84
2023-02-17T09:03:01.962Z,99252.63
2023-02-17T09:05:06.000Z,99252.38
2023-02-17T09:07:10.661Z,99252.38
2023-02-17T09:09:14.257Z,99255.69
2023-02-17T09:11:19.658Z,99251.03
2023-02-17T09:13:21.330Z,99257.09
2023-02-17T09:15:23.076Z,99250.53
2023-02-17T09:17:25.185Z,99238.53
2023-02-17T09:19:27.379Z,99250.06
2023-02-17T09:21:28.976Z,99247.06
2023-02-17T09:23:30.511Z,99246.22
2023-02-17T09:25:32.135Z,99244.09
2023-02-17T09:27:33.703Z,99245.72
2023-02-17T09:29:37.464Z,99254.50
2023-02-17T09:31:39.224Z,99251.53
2023-02-17T09:33:42.124Z,99251.53
2023-02-17T09:35:46.021Z,99243.09
2023-02-17T09:37:50.555Z,99249.41
2023-02-17T09:39:52.772Z,99243.94
2023-02-17T09:41:55.353Z,99235.72
2023-02-17T09:43:57.085Z,99249.97
2023-02-17T09:46:12.151Z,99241.53
2023-02-17T09:48:17.513Z,99251.38
2023-02-17T09:50:25.362Z,99254.13
2023-02-17T09:52:42.535Z,99245.91
2023-02-17T09:55:10.327Z,99242.94
2023-02-17T09:57:20.869Z,99236.38
2023-02-17T09:59:29.509Z,99233.41
2023-02-17T10:01:33.552Z,99222.19
2023-02-17T10:03:46.063Z,99228.72
2023-02-17T10:06:07.053Z,99227.41
2023-02-17T10:08:15.757Z,99221.69
2023-02-17T10:10:34.176Z,99221.69
2023-02-17T10:12:41.256Z,99222.00
2023-02-17T10:14:49.976Z,99231.03
2023-02-17T10:16:57.476Z,99230.56
2023-02-17T10:19:19.265Z,99242.66
2023-02-17T10:21:30.663Z,99230.63
2023-02-17T10:23:34.146Z,99223.81
2023-02-17T10:25:52.093Z,99218.06
2023-02-17T10:28:01.295Z,99230.44
2023-02-17T10:30:18.968Z,99223.63
2023-02-17T10:32:28.091Z,99215.16
2023-02-17T10:34:37.183Z,99219.03
2023-02-17T10:37:10.845Z,99228.94
2023-02-17T10:39:16.385Z,99234.41
2023-02-17T10:41:23.268Z,99232.81
2023-02-17T10:43:29.953Z,99226.25
2023-02-17T10:45:41.053Z,99228.72
2023-02-17T10:47:42.929Z,99229.91
2023-02-17T10:49:49.517Z,99207.72
2023-02-17T10:51:51.148Z,99225.81
2023-02-17T10:54:35.807Z,99221.75
2023-02-17T10:56:47.069Z,99222.06
2023-02-17T10:59:06.476Z,99221.53
2023-02-17T11:01:08.674Z,99213.06
2023-02-17T11:03:24.961Z,99211.72
2023-02-17T11:05:34.825Z,99213.38
2023-02-17T11:07:39.971Z,99217.25
2023-02-17T11:09:48.542Z,99213.19
2023-02-17T11:12:12.066Z,99217.59
2023-02-17T11:14:20.863Z,99205.78
2023-02-17T11:16:30.459Z,99211.28
2023-02-17T11:18:38.707Z,99197.06
2023-02-17T11:20:40.465Z,99191.06
2023-02-17T11:22:47.857Z,99193.25
2023-02-17T11:24:58.474Z,99194.06
2023-02-17T11:27:11.941Z,99191.06
2023-02-17T11:29:21.071Z,99188.63
2023-02-17T11:31:30.894Z,99186.72
2023-02-17T11:33:37.994Z,99190.03
2023-02-17T11:35:42.418Z,99191.69
2023-02-17T11:37:43.925Z,99193.38
2023-02-17T11:39:48.958Z,99185.16
2023-02-17T11:41:50.740Z,99173.06
2023-02-17T11:43:59.973Z,99179.38
2023-02-17T11:46:25.898Z,99165.69
2023-02-17T11:49:02.473Z,99176.66
2023-02-17T11:51:13.446Z,99184.59
2023-02-17T11:53:42.342Z,99182.69
2023-02-17T11:56:23.698Z,99183.53
2023-02-17T11:58:27.953Z,99178.88
2023-02-17T12:01:07.182Z,99192.59
2023-02-17T12:03:36.849Z,99171.50
2023-02-17T12:06:08.733Z,99182.47
2023-02-17T12:08:29.940Z,99175.88
2023-02-17T12:11:16.320Z,99178.06
2023-02-17T12:13:42.151Z,99170.38
2023-02-17T12:16:21.204Z,99174.22
2023-02-17T12:18:38.332Z,99178.88
2023-02-17T12:20:45.823Z,99170.38
2023-02-17T12:23:05.584Z,99173.69
2023-02-17T12:25:13.152Z,99169.88
2023-02-17T12:27:34.188Z,99175.09
2023-02-17T12:30:04.415Z,99164.41
2023-02-17T12:32:27.522Z,99166.34
2023-02-17T12:34:39.122Z,99169.38
2023-02-17T12:36:43.334Z,99161.97
2023-02-17T12:38:53.962Z,99168.25
2023-02-17T12:41:05.970Z,99170.75
2023-02-17T12:43:31.245Z,99157.06
2023-02-17T12:45:44.100Z,99157.88
2023-02-17T12:48:04.131Z,99149.91
2023-02-17T12:50:17.563Z,99156.22
2023-02-17T12:52:30.721Z,99151.31
2023-02-17T12:54:45.447Z,99169.41
2023-02-17T12:57:12.977Z,99171.66
2023-02-17T12:59:22.067Z,99156.84
2023-02-17T13:01:29.170Z,99163.16
2023-02-17T13:03:32.843Z,99158.50
2023-02-17T13:05:48.068Z,99160.69
2023-02-17T13:08:06.490Z,99147.53
2023-02-17T13:10:19.821Z,99154.69
2023-02-17T13:12:33.822Z,99149.75
2023-02-17T13:14:39.602Z,99150.31
2023-02-17T13:16:46.063Z,99158.28
2023-02-17T13:18:51.768Z,99150.88
2023-02-17T13:21:14.437Z,99145.97
2023-02-17T13:23:30.688Z,99135.00
2023-02-17T13:25:37.492Z,99139.13
2023-02-17T13:27:40.582Z,99128.16
2023-02-17T13:29:42.169Z,99123.50
2023-02-17T13:31:47.179Z,99126.03
2023-02-17T13:33:58.462Z,99123.03
2023-02-17T13:35:59.995Z,99126.31
2023-02-17T13:38:02.057Z,99124.13
2023-02-17T13:40:24.356Z,99119.19
2023-02-17T13:42:41.629Z,99128.00
2023-02-17T13:44:44.708Z,99133.19
2023-02-17T13:46:48.181Z,99114.00
2023-02-17T13:49:04.374Z,99117.03
2023-02-17T13:51:09.937Z,99122.00
2023-02-17T13:53:38.932Z,99116.50
2023-02-17T13:55:44.153Z,99107.16
2023-02-17T13:57:45.945Z,99114.31
2023-02-17T13:59:47.446Z,99117.06
2023-02-17T14:01:49.496Z,99115.16
2023-02-17T14:03:55.104Z,99107.47
2023-02-17T14:05:59.442Z,99111.84
2023-02-17T14:08:35.892Z,99123.09
2023-02-17T14:10:40.456Z,99127.50
2023-02-17T14:12:42.198Z,99117.94
2023-02-17T14:14:44.078Z,99106.69
2023-02-17T14:17:03.023Z,99109.44
2023-02-17T14:19:09.527Z,99108.91
2023-02-17T14:21:23.828Z,99116.03
2023-02-17T14:23:25.530Z,99102.31
2023-02-17T14:25:30.729Z,99103.72
2023-02-17T14:27:47.608Z,99099.06
2023-02-17T14:29:50.355Z,99093.03
2023-02-17T14:31:53.487Z,99076.59
2023-02-17T14:34:01.546Z,99087.88
2023-02-17T14:36:07.778Z,99084.00
2023-02-17T14:38:21.422Z,99082.66
2023-02-17T14:40:25.257Z,99071.16
2023-02-17T14:42:26.808Z,99065.16
2023-02-17T14:44:28.553Z,99060.22
2023-02-17T14:46:30.306Z,99056.38
2023-02-17T14:48:32.073Z,99049.78
2023-02-17T14:50:34.968Z,99057.78
2023-02-17T14:52:45.982Z,99060.25
2023-02-17T14:54:48.192Z,99058.06
2023-02-17T14:57:06.205Z,99071.25
2023-02-17T14:59:11.067Z,99072.63
2023-02-17T15:01:18.974Z,99070.72
2023-02-17T15:03:23.644Z,99070.44
2023-02-17T15:05:25.454Z,99071.28
2023-02-17T15:07:27.225Z,99074.84
2023-02-17T15:09:30.982Z,99083.91
2023-02-17T15:11:36.878Z,99084.72
2023-02-17T15:13:38.634Z,99092.16
2023-02-17T15:15:44.639Z,99084.47
2023-02-17T15:17:46.420Z,99089.97
2023-02-17T15:19:51.938Z,99094.63
2023-02-17T15:21:55.730Z,99100.13
2023-02-17T15:24:02.024Z,99099.03
2023-02-17T15:26:10.403Z,99113.56
2023-02-17T15:28:16.673Z,99092.44
2023-02-17T15:30:21.604Z,99103.16
2023-02-17T15:32:24.128Z,99097.41
2023-02-17T15:34:31.031Z,99096.00
2023-02-17T15:36:32.795Z,99092.19
2023-02-17T15:38:34.568Z,99096.28
2023-02-17T15:40:36.653Z,99100.66
2023-02-17T15:42:38.439Z,99101.78
2023-02-17T15:44:49.890Z,99108.34
2023-02-17T15:46:54.545Z,99113.00
2023-02-17T15:48:59.138Z,99106.97
2023-02-17T15:51:00.780Z,99117.94
2023-02-17T15:53:02.576Z,99122.88
2023-02-17T15:55:04.618Z,99126.19
2023-02-17T15:57:10.358Z,99120.69
2023-02-17T15:59:17.767Z,99110.78
2023-02-17T16:01:31.908Z,99112.97
2023-02-17T16:03:33.525Z,99115.72
2023-02-17T16:05:35.137Z,99129.44
2023-02-17T16:07:40.088Z,99117.38
2023-02-17T16:09:42.109Z,99107.50
2023-02-17T16:11:48.343Z,99108.00
2023-02-17T16:13:50.213Z,99105.25
2023-02-17T16:15:52.449Z,99113.25
2023-02-17T16:17:55.716Z,99112.41
2023-02-17T16:19:57.567Z,99108.84
2023-02-17T16:21:59.032Z,99110.75
2023-02-17T16:24:00.559Z,99100.06
2023-02-17T16:26:02.657Z,99122.56
2023-02-17T16:28:06.163Z,99105.25
2023-02-17T16:30:30.123Z,99112.09
2023-02-17T16:32:34.795Z,99101.97
2023-02-17T16:34:37.069Z,99112.09
2023-02-17T16:36:39.150Z,99113.47
2023-02-17T16:38:41.007Z,99105.81
2023-02-17T16:40:49.213Z,99112.38
2023-02-17T16:42:51.400Z,99108.81
2023-02-17T16:44:52.928Z,99117.88
2023-02-17T16:46:56.636Z,99124.44
2023-02-17T16:49:02.204Z,99122.81
2023-02-17T16:51:05.328Z,99118.97
2023-02-17T16:53:08.784Z,99119.78
2023-02-17T16:55:19.436Z,99128.31
2023-02-17T16:57:21.992Z,99118.97
2023-02-17T16:59:25.203Z,99113.47
2023-02-17T17:01:26.823Z,99114.56
2023-02-17T17:03:28.370Z,99112.66
2023-02-17T17:05:31.257Z,99108.53
2023-02-17T17:07:33.348Z,99100.84
2023-02-17T17:09:35.060Z,99100.03
2023-02-17T17:11:36.614Z,99100.84
2023-02-17T17:13:38.342Z,99094.53
2023-02-17T17:15:43.768Z,99104.44
2023-02-17T17:17:51.828Z,99128.03
2023-02-17T17:19:53.540Z,99122.81
2023-02-17T17:21:55.160Z,99123.66
2023-02-17T17:23:56.915Z,99120.63
2023-02-17T17:26:01.309Z,99121.97
2023-02-17T17:28:03.568Z,99126.94
2023-02-17T17:30:07.003Z,99134.34
2023-02-17T17:32:08.814Z,99127.19
2023-02-17T17:34:10.627Z,99127.19
2023-02-17T17:36:17.986Z,99133.78
2023-02-17T17:38:19.743Z,99136.25
2023-02-17T17:40:33.566Z,99130.22
2023-02-17T17:42:37.602Z,99129.13
2023-02-17T17:44:39.497Z,99128.03
2023-02-17T17:46:41.671Z,99142.84
2023-02-17T17:48:43.712Z,99139.53
2023-02-17T17:50:45.681Z,99139.28
2023-02-17T17:52:47.483Z,99149.16
2023-02-17T17:54:49.535Z,99139.00
2023-02-17T17:56:53.505Z,99148.06
2023-02-17T17:58:55.911Z,99160.72
2023-02-17T18:01:00.879Z,99163.47
2023-02-17T18:03:08.434Z,99168.94
2023-02-17T18:05:10.571Z,99176.34
2023-02-17T18:07:12.948Z,99177.19
2023-02-17T18:09:31.934Z,99181.84
2023-02-17T18:11:35.396Z,99176.06
2023-02-17T18:13:38.158Z,99181.31
2023-02-17T18:15:41.624Z,99175.81
2023-02-17T18:17:49.264Z,99172.81
2023-02-17T18:19:55.038Z,99179.38
2023-02-17T18:21:57.006Z,99180.22
2023-02-17T18:24:07.761Z,99178.28
2023-02-17T18:26:11.875Z,99168.16
2023-02-17T18:28:14.199Z,99173.38
2023-02-17T18:30:19.502Z,99165.97
2023-02-17T18:32:22.016Z,99162.38
2023-02-17T18:34:23.467Z,99160.75
2023-02-17T18:36:27.367Z,99160.75
2023-02-17T18:38:30.609Z,99146.19
2023-02-17T18:40:32.716Z,99157.16
2023-02-17T18:42:34.140Z,99163.50
2023-02-17T18:44:35.734Z,99166.25
2023-02-17T18:46:39.182Z,99167.31
2023-02-17T18:48:41.208Z,99167.88
2023-02-17T18:50:42.989Z,99165.66
2023-02-17T18:52:44.994Z,99161.81
2023-02-17T18:54:46.826Z,99169.22
2023-02-17T18:56:48.572Z,99158.25
2023-02-17T18:58:52.561Z,99164.56
2023-02-17T19:00:54.180Z,99175.00
2023-02-17T19:02:55.990Z,99180.47
2023-02-17T19:05:04.503Z,99184.06
2023-02-17T19:07:07.408Z,99195.56
2023-02-17T19:09:09.442Z,99194.22
2023-02-17T19:11:11.085Z,99196.41
2023-02-17T19:13:13.071Z,99182.66
2023-02-17T19:15:20.954Z,99185.41
2023-02-17T19:17:24.256Z,99173.59
2023-02-17T19:19:28.378Z,99183.75
2023-02-17T19:21:30.594Z,99193.91
2023-02-17T19:23:32.598Z,99192.53
2023-02-17T19:25:37.905Z,99194.72
2023-02-17T19:27:40.743Z,99183.75
2023-02-17T19:29:42.482Z,99188.16
2023-02-17T19:31:44.342Z,99176.34
2023-02-17T19:33:47.028Z,99182.66
2023-02-17T19:35:48.810Z,99181.84
2023-02-17T19:37:50.513Z,99180.16
2023-02-17T19:39:52.057Z,99181.84
2023-02-17T19:41:53.736Z,99193.66
2023-02-17T19:43:55.530Z,99194.72
2023-02-17T19:46:02.515Z,99187.31
2023-02-17T19:48:04.315Z,99195.56
2023-02-17T19:50:09.024Z,99194.72
2023-02-17T19:52:10.702Z,99194.72
2023-02-17T19:54:12.366Z,99192.25
2023-02-17T19:56:25.242Z,99192.50
2023-02-17T19:58:26.818Z,99195.00
2023-02-17T20:00:29.912Z,99196.63
2023-02-17T20:02:31.950Z,99198.56
2023-02-17T20:04:33.566Z,99194.16
2023-02-17T20:06:41.173Z,99203.47
2023-02-17T20:08:44.267Z,99198.00
2023-02-17T20:10:45.890Z,99195.25
2023-02-17T20:12:47.525Z,99204.31
2023-02-17T20:14:49.025Z,99205.97
2023-02-17T20:16:53.365Z,99212.28
2023-02-17T20:18:55.623Z,99204.03
2023-02-17T20:20:57.413Z,99201.28
2023-02-17T20:22:59.022Z,99204.88
2023-02-17T20:25:00.708Z,99204.03
2023-02-17T20:27:02.372Z,99202.41
2023-02-17T20:29:05.659Z,99204.03
2023-02-17T20:31:08.028Z,99202.41
2023-02-17T20:33:10.836Z,99204.03
2023-02-17T20:35:17.267Z,99192.25
2023-02-17T20:37:24.566Z,99209.53
2023-02-17T20:39:34.047Z,99205.16
2023-02-17T20:41:35.592Z,99208.13
2023-02-17T20:43:38.346Z,99213.38
2023-02-17T20:45:40.131Z,99210.63
2023-02-17T20:47:41.991Z,99209.81
2023-02-17T20:49:43.664Z,99211.47
2023-02-17T20:51:45.197Z,99216.97
2023-02-17T20:53:46.940Z,99218.59
2023-02-17T20:55:52.207Z,99217.75
2023-02-17T20:57:56.392Z,99224.34
2023-02-17T21:00:02.345Z,99222.69
2023-02-17T21:02:04.237Z,99228.75
2023-02-17T21:04:05.918Z,99232.06
2023-02-17T21:06:21.794Z,99233.44
2023-02-17T21:08:23.594Z,99244.97
2023-02-17T21:10:32.925Z,99238.91
2023-02-17T21:12:37.623Z,99238.91
2023-02-17T21:14:41.922Z,99245.22
2023-02-17T21:16:43.671Z,99244.41
2023-02-17T21:18:46.875Z,99236.16
2023-02-17T21:20:49.116Z,99237.81
2023-02-17T21:22:56.685Z,99249.91
2023-02-17T21:24:58.367Z,99239.72
2023-02-17T21:27:04.875Z,99241.66
2023-02-17T21:29:07.042Z,99243.28
2023-02-17T21:31:11.776Z,99248.53
2023-02-17T21:33:13.365Z,99240.31
2023-02-17T21:35:14.993Z,99242.22
2023-02-17T21:37:23.237Z,99238.66
2023-02-17T21:39:24.844Z,99247.72
2023-02-17T21:41:29.236Z,99240.31
2023-02-17T21:43:49.554Z,99251.28
2023-02-17T21:45:51.316Z,99243.56
2023-02-17T21:47:53.370Z,99248.53
2023-02-17T21:49:54.935Z,99236.97
2023-02-17T21:51:56.548Z,99246.03
2023-02-17T21:53:59.233Z,99234.22
2023-02-17T21:56:04.313Z,99234.81
2023-02-17T21:58:05.853Z,99244.97
2023-02-17T22:00:08.743Z,99248.78
2023-02-17T22:02:13.726Z,99255.13
2023-02-17T22:04:15.331Z,99253.72
2023-02-17T22:06:23.644Z,99254.56
2023-02-17T22:08:25.324Z,99259.19
2023-02-17T22:10:27.077Z,99261.13
2023-02-17T22:12:28.696Z,99272.94
2023-02-17T22:14:31.295Z,99270.47
2023-02-17T22:16:38.010Z,99266.59
2023-02-17T22:18:39.888Z,99263.31
2023-02-17T22:20:44.225Z,99260.56
2023-02-17T22:22:45.789Z,99266.88
2023-02-17T22:24:47.385Z,99272.09
2023-02-17T22:26:56.626Z,99274.56
2023-02-17T22:28:58.956Z,99267.13
2023-02-17T22:31:00.838Z,99273.44
2023-02-17T22:33:02.391Z,99277.84
2023-02-17T22:35:06.477Z,99271.25
2023-02-17T22:37:08.081Z,99262.75
2023-02-17T22:39:09.760Z,99266.03
2023-02-17T22:41:15.248Z,99260.56
2023-02-17T22:43:17.484Z,99252.59
2023-02-17T22:45:19.133Z,99261.91
2023-02-17T22:47:20.953Z,99261.06
2023-02-17T22:49:22.651Z,99258.59
2023-02-17T22:51:30.899Z,99265.47
2023-02-17T22:53:32.494Z,99260.00
2023-02-17T22:55:34.247Z,99266.31
2023-02-17T22:57:35.834Z,99268.47
2023-02-17T22:59:37.397Z,99264.09
2023-02-17T23:01:39.230Z,99273.16
2023-02-17T23:03:41.400Z,99266.00
2023-02-17T23:05:43.817Z,99264.91
2023-02-17T23:07:45.446Z,99267.91
2023-02-17T23:09:46.885Z,99272.31
2023-02-17T23:11:52.437Z,99278.66
2023-02-17T23:13:54.088Z,99277.25
2023-02-17T23:15:55.895Z,99284.66
2023-02-17T23:17:57.574Z,99272.31
2023-02-17T23:19:59.074Z,99274.22
2023-02-17T23:22:03.647Z,99271.47
2023-02-17T23:24:05.506Z,99262.19
2023-02-17T23:26:07.562Z,99268.75
2023-02-17T23:28:10.970Z,99273.94
2023-02-17T23:30:19.223Z,99273.66
2023-02-17T23:32:29.902Z,99273.41
2023-02-17T23:34:31.701Z,99274.22
2023-02-17T23:36:33.555Z,99272.56
2023-02-17T23:38:37.462Z,99270.66
2023-02-17T23:40:39.925Z,99278.88
2023-02-17T23:42:41.746Z,99270.09
2023-02-17T23:44:43.209Z,99273.66
2023-02-17T23:46:45.372Z,99265.44
2023-02-17T23:48:47.270Z,99274.75
2023-02-17T23:50:57.171Z,99273.34
2023-02-17T23:52:58.920Z,99265.38
2023-02-17T23:55:00.735Z,99276.09
2023-02-17T23:57:03.163Z,99268.69
2023-02-17T23:59:05.413Z,99269.75
